Terminal Aerodrome Forecast
Issued by NWS Caribou, ME

Home | Current Version | Previous Version | Text Only | Print | Product List | Glossary On
Versions: 1 2 3 4 5 6 7 8 9 10 11 12 13 14 15 16 17 18 19 20
525
FTUS41 KCAR 050535
TAFBGR
TAF
KBGR 050535Z 0506/0606 04006KT 3SM -RA SCT010 OVC020
     FM050800 05007KT 3SM -RA OVC015
     FM051000 04008KT P6SM OVC007
     FM051500 03010KT P6SM OVC005
     FM051900 04010KT 5SM -RA OVC007
     FM060100 03011KT 3SM -RA OVC005=

USA.gov is the U.S. government's official web portal to all federal, state and local government web resources and services.